Flight Track Log - Related Links

Times and Time Zones

All times are in EDT time to prevent confusion due to time zone crossing. See the N717AH flight status page for this flight to view local times or setup timezone preferences in your user account.

Time Position Orientation Groundspeed Altitude Reporting Facility
EDT Latitude Longitude Course Direction KTS MPH feet Rate Location/Type
Tue 09:15:08 AM 40.8167 -77.8817 201° Southwest 175 201 2,600  Level New York Center
Tue 09:16:06 AM 40.7847 -77.8919 194° South 156 180 3,300 777 Climbing New York Center
Tue 09:17:27 AM 40.7425 -77.9056 194° South 125 144 4,400 809 Climbing Cleveland Center
Tue 09:18:27 AM 40.7114 -77.9150 193° South 119 137 5,200 800 Climbing Cleveland Center
Tue 09:19:00 AM 40.5644 -77.9360 191° South  Level Estimated
Tue 09:19:27 AM 40.6803 -77.9217 189° South 119 137 6,000  Level Cleveland Center
Tue 09:20:00 AM 40.5169 -77.9505 201° Southwest  Level Estimated
Tue 09:20:27 AM 40.6472 -77.9342 196° South 124 143 6,700  Level Cleveland Center
Tue 09:21:27 AM 40.6119 -77.9436 191° South 124 143 7,400 650 Climbing Cleveland Center
Tue 09:22:27 AM 40.5747 -77.9561 194° South 124 143 8,000 600 Climbing Cleveland Center
Tue 09:23:27 AM 40.5419 -77.9792 208° Southwest 124 143 8,600 600 Climbing Cleveland Center
Tue 09:24:27 AM 40.5114 -78.0050 213° Southwest 137 158 9,200 550 Climbing Cleveland Center
Tue 09:25:27 AM 40.4806 -78.0336 215° Southwest 137 158 9,700 500 Climbing Cleveland Center
Tue 09:26:27 AM 40.4456 -78.0539 204° Southwest 142 163 10,200 450 Climbing Cleveland Center
Tue 09:27:27 AM 40.4064 -78.0664 194° South 142 163 10,600 450 Climbing Cleveland Center
Tue 09:28:27 AM 40.3692 -78.0786 194° South 142 163 11,100 450 Climbing Cleveland Center
Tue 09:29:27 AM 40.3297 -78.0883 191° South 142 163 11,500 450 Climbing Cleveland Center
Tue 09:30:27 AM 40.2903 -78.1006 193° South 142 163 12,000 250 Climbing Cleveland Center
Tue 09:31:27 AM 40.2489 -78.1103 190° South 142 163 12,000  Level Cleveland Center
Tue 09:32:27 AM 40.2075 -78.1228 193° South 147 169 12,000  Level Cleveland Center
Tue 09:33:27 AM 40.1617 -78.1353 192° South 157 181 12,000  Level Cleveland Center
Tue 09:34:27 AM 40.1203 -78.1478 193° South 157 181 12,000  Level Cleveland Center
Tue 09:35:27 AM 40.0769 -78.1628 195° South 163 188 12,000  Level Cleveland Center
Tue 09:37:51 AM 39.9775 -78.1881 191° South 159 183 12,000  Level Washington Center
Tue 09:38:49 AM 39.9356 -78.2000 192° South 164 189 12,000  Level Washington Center
Tue 09:39:50 AM 39.8936 -78.2119 192° South 164 189 12,000 -15 Level Washington Center
Tue 09:45:33 AM 39.6400 -78.2850 192° South 159 183 11,900 -16 Descending FlightAware ADS-B
Tue 09:46:08 AM 39.6150 -78.2920 192° South 159 183 11,900  Level FlightAware ADS-B
Tue 09:46:46 AM 39.5920 -78.2990 193° South 159 183 11,900  Level FlightAware ADS-B
Tue 09:47:22 AM 39.5700 -78.3050 192° South 159 183 11,900  Level FlightAware ADS-B
Tue 09:47:58 AM 39.5350 -78.3150 192° South 160 184 11,900  Level FlightAware ADS-B
Tue 09:48:33 AM 39.5100 -78.3220 192° South 161 185 11,900  Level FlightAware ADS-B
Tue 09:49:08 AM 39.4860 -78.3290 193° South 159 183 11,900  Level FlightAware ADS-B
Tue 09:49:43 AM 39.4590 -78.3370 193° South 160 184 11,900  Level FlightAware ADS-B
Tue 09:50:18 AM 39.4330 -78.3440 192° South 160 184 11,900  Level FlightAware ADS-B
Tue 09:50:53 AM 39.4080 -78.3510 192° South 161 185 11,900  Level FlightAware ADS-B
Tue 09:51:28 AM 39.3830 -78.3580 192° South 160 184 11,900  Level FlightAware ADS-B
Tue 09:52:03 AM 39.3570 -78.3660 193° South 160 184 11,900  Level FlightAware ADS-B
Tue 09:52:38 AM 39.3310 -78.3730 192° South 160 184 11,900  Level FlightAware ADS-B
Tue 09:53:13 AM 39.3050 -78.3800 192° South 160 184 11,900  Level FlightAware ADS-B
Tue 09:53:48 AM 39.2800 -78.3880 194° South 162 186 11,900  Level FlightAware ADS-B
Tue 09:54:23 AM 39.2570 -78.3940 191° South 160 184 11,900  Level FlightAware ADS-B
Tue 09:54:58 AM 39.2300 -78.4010 191° South 161 185 11,900  Level FlightAware ADS-B
Tue 09:55:33 AM 39.2030 -78.4090 193° South 160 184 11,900  Level FlightAware ADS-B
Tue 09:56:08 AM 39.1770 -78.4160 192° South 161 185 11,900  Level FlightAware ADS-B
Tue 09:56:48 AM 39.1490 -78.4240 192° South 161 185 11,900  Level FlightAware ADS-B
Tue 09:57:18 AM 39.1270 -78.4300 192° South 161 185 11,900  Level FlightAware ADS-B
Tue 09:58:03 AM 39.0940 -78.4400 193° South 161 185 11,900  Level FlightAware ADS-B
Tue 09:58:33 AM 39.0720 -78.4460 192° South 161 185 11,900  Level FlightAware ADS-B
Tue 09:59:08 AM 39.0470 -78.4530 192° South 161 185 11,900  Level FlightAware ADS-B
Tue 09:59:48 AM 39.0160 -78.4620 193° South 161 185 11,900  Level FlightAware ADS-B
Tue 10:00:29 AM 38.9870 -78.4700 192° South 160 184 11,900  Level FlightAware ADS-B
Tue 10:01:08 AM 38.9600 -78.4770 191° South 160 184 11,900  Level FlightAware ADS-B
Tue 10:01:50 AM 38.9270 -78.4860 192° South 161 185 11,900  Level FlightAware ADS-B
Tue 10:02:20 AM 38.9090 -78.4920 195° South 160 184 11,900  Level FlightAware ADS-B
Tue 10:02:50 AM 38.8860 -78.4980 191° South 161 185 11,900  Level FlightAware ADS-B
Tue 10:03:35 AM 38.8520 -78.5070 192° South 161 185 11,900  Level FlightAware ADS-B
Tue 10:04:05 AM 38.8290 -78.5140 193° South 160 184 11,900  Level FlightAware ADS-B
Tue 10:04:40 AM 38.8030 -78.5210 192° South 160 184 11,900  Level FlightAware ADS-B
Tue 10:05:15 AM 38.7790 -78.5280 193° South 160 184 11,900  Level FlightAware ADS-B
Tue 10:05:50 AM 38.7550 -78.5340 191° South 159 183 11,900  Level FlightAware ADS-B
Tue 10:06:25 AM 38.7280 -78.5420 193° South 158 182 11,900  Level FlightAware ADS-B
Tue 10:07:10 AM 38.6970 -78.5500 191° South 158 182 11,900  Level FlightAware ADS-B
Tue 10:07:50 AM 38.6660 -78.5590 193° South 157 181 11,900  Level FlightAware ADS-B
Tue 10:08:25 AM 38.6420 -78.5660 193° South 159 183 11,900  Level FlightAware ADS-B
Tue 10:09:07 AM 38.6180 -78.5720 191° South 159 183 11,900  Level FlightAware ADS-B
Tue 10:09:43 AM 38.5960 -78.5780 192° South 159 183 11,900  Level FlightAware ADS-B
Tue 10:10:19 AM 38.5740 -78.5840 192° South 159 183 11,900  Level FlightAware ADS-B
Tue 10:12:30 AM 38.4640 -78.6150 192° South 159 183 11,900  Level FlightAware ADS-B
Tue 10:13:06 AM 38.4380 -78.6220 192° South 158 182 11,900  Level FlightAware ADS-B
Tue 10:13:44 AM 38.4110 -78.6290 191° South 159 183 11,900  Level FlightAware ADS-B
Tue 10:14:16 AM 38.3880 -78.6360 193° South 158 182 11,900  Level FlightAware ADS-B
Tue 10:14:54 AM 38.3650 -78.6420 192° South 158 182 11,900  Level FlightAware ADS-B
Tue 10:15:18 AM 38.3500 -78.6460 192° South 158 182 11,900  Level FlightAware ADS-B
Tue 10:16:15 AM 38.3050 -78.6590 193° South 159 183 11,900  Level FlightAware ADS-B
Tue 10:16:51 AM 38.2830 -78.6640 190° South 159 183 11,900  Level FlightAware ADS-B
Tue 10:17:27 AM 38.2610 -78.6700 192° South 159 183 11,900  Level FlightAware ADS-B
Tue 10:19:05 AM 38.1780 -78.6930 192° South 160 184 11,900  Level FlightAware ADS-B
Tue 10:19:45 AM 38.1530 -78.7000 192° South 160 184 11,900  Level FlightAware ADS-B
Tue 10:20:21 AM 38.1310 -78.7060 192° South 160 184 11,900  Level FlightAware ADS-B
Tue 10:20:57 AM 38.1090 -78.7120 192° South 160 184 11,900  Level FlightAware ADS-B
Tue 10:21:56 AM 38.0560 -78.7270 193° South 160 184 11,900  Level FlightAware ADS-B
Tue 10:22:35 AM 38.0320 -78.7330 191° South 160 184 11,900  Level FlightAware ADS-B
Tue 10:23:24 AM 38.0020 -78.7410 192° South 160 184 11,900  Level FlightAware ADS-B
Tue 10:23:48 AM 37.9870 -78.7450 192° South 160 184 11,900  Level FlightAware ADS-B
Tue 10:26:45 AM 37.8410 -78.7850 192° South 165 190 11,900  Level FlightAware ADS-B
Tue 10:27:13 AM 37.8200 -78.7910 193° South 166 191 11,900  Level FlightAware ADS-B
Tue 10:27:51 AM 37.7910 -78.7990 192° South 165 190 11,900  Level FlightAware ADS-B
Tue 10:28:31 AM 37.7620 -78.8070 192° South 165 190 11,900  Level FlightAware ADS-B
Tue 10:28:59 AM 37.7400 -78.8120 190° South 164 189 11,900  Level FlightAware ADS-B
Tue 10:29:40 AM 37.7140 -78.8190 192° South 164 189 11,900  Level FlightAware ADS-B
Tue 10:30:16 AM 37.6910 -78.8240 190° South 164 189 11,900  Level FlightAware ADS-B
Tue 10:33:47 AM 37.5290 -78.8690 192° South 161 185 11,900  Level FlightAware ADS-B
Tue 10:34:27 AM 37.5050 -78.8760 193° South 161 185 11,900  Level FlightAware ADS-B
Tue 10:35:03 AM 37.4820 -78.8820 192° South 161 185 11,900  Level FlightAware ADS-B
Tue 10:35:42 AM 37.4580 -78.8880 191° South 161 185 11,900 56 Level FlightAware ADS-B
Tue 10:36:50 AM 37.4017 -78.9042 191° South 164 189 12,000 47 Climbing Washington Center
Tue 10:37:50 AM 37.3661 -78.9131 191° South 164 189 12,000  Level Washington Center
Tue 10:38:51 AM 37.3133 -78.9292 194° South 164 189 12,000  Level Washington Center
Tue 10:39:49 AM 37.2672 -78.9403 191° South 164 189 12,000  Level Washington Center
Tue 10:40:50 AM 37.2272 -78.9489 190° South 164 189 12,000  Level Washington Center
Tue 10:41:51 AM 37.1831 -78.9625 194° South 164 189 12,000  Level Washington Center
Tue 10:42:51 AM 37.1475 -78.9714 191° South 164 189 12,000  Level Washington Center
Tue 10:43:49 AM 37.0928 -78.9872 193° South 164 189 12,000  Level Washington Center
Tue 10:44:50 AM 37.0422 -78.9981 190° South 164 189 12,000  Level Washington Center
Tue 10:45:51 AM 36.9961 -79.0117 193° South 164 189 12,000  Level Washington Center
Tue 10:46:49 AM 36.9519 -79.0225 191° South 164 189 12,000  Level Washington Center
Tue 10:47:50 AM 36.9056 -79.0361 193° South 164 189 12,000  Level Washington Center
Tue 10:48:50 AM 36.8656 -79.0475 193° South 164 189 12,000  Level Washington Center
Tue 10:49:51 AM 36.8217 -79.0583 191° South 164 189 12,000  Level Washington Center
Tue 10:50:51 AM 36.7753 -79.0692 191° South 164 189 12,000  Level Washington Center
Tue 10:51:50 AM 36.7292 -79.0828 193° South 164 189 12,000  Level Washington Center
Tue 10:52:51 AM 36.6786 -79.0933 190° South 169 194 12,000  Level Washington Center
Tue 10:53:51 AM 36.6364 -79.1097 197° South 169 194 12,000  Level Washington Center
Tue 10:54:51 AM 36.5922 -79.1206 191° South 169 194 12,000  Level Washington Center
Tue 10:55:49 AM 36.5439 -79.1314 190° South 163 188 12,000  Level Washington Center
Tue 10:56:49 AM 36.5019 -79.1422 192° South 163 188 12,000  Level Washington Center
Tue 10:57:50 AM 36.4556 -79.1558 193° South 163 188 12,000  Level Washington Center
Tue 10:58:53 AM 36.4050 -79.1714 194° South 168 193 12,000  Level Washington Center
Tue 10:59:50 AM 36.3608 -79.1822 191° South 171 197 12,000  Level Washington Center
Tue 11:01:00 AM 36.3061 -79.1978 193° South 168 193 12,000  Level Washington Center
Tue 11:02:01 AM 36.2578 -79.2111 193° South 170 196 12,000 -14 Level Washington Center
Tue 11:07:23 AM 36.1280 -79.2380 193° South 11,900 -17 Descending FlightAware ADS-B
Tue 11:07:56 AM 36.1070 -79.2440 193° South 171 197 11,900  Level FlightAware ADS-B
Tue 11:08:32 AM 36.0830 -79.2500 191° South 171 197 11,900  Level FlightAware ADS-B
Tue 11:09:09 AM 36.0590 -79.2560 191° South 171 197 11,900  Level FlightAware ADS-B
Tue 11:10:05 AM 35.9950 -79.2720 191° South 257 296 11,900  Level FlightAware ADS-B
Tue 11:11:01 AM 35.9580 -79.2820 192° South 167 192 11,900  Level FlightAware ADS-B
Tue 11:11:57 AM 35.9220 -79.2920 193° South 167 192 11,900  Level FlightAware ADS-B
Tue 11:12:36 AM 35.8770 -79.3030 191° South 167 192 11,900  Level FlightAware ADS-B
Tue 11:13:11 AM 35.8370 -79.3130 191° South 168 193 11,900  Level FlightAware ADS-B
Tue 11:13:58 AM 35.8060 -79.3210 192° South 168 193 11,900 68 Level FlightAware ADS-B
Tue 11:14:39 AM 35.6775 -79.3533 192° South 177 204 12,000 59 Climbing Washington Center
Tue 11:15:39 AM 35.6356 -79.3642 192° South 177 204 12,000  Level Washington Center
Tue 11:16:37 AM 35.5850 -79.3772 192° South 177 204 12,000 -50 Level Washington Center
Tue 11:17:38 AM 35.5406 -79.3928 196° South 177 204 11,900 -49 Descending Washington Center
Tue 11:18:39 AM 35.4986 -79.4036 192° South 177 204 11,900  Level Washington Center
Tue 11:19:37 AM 35.4567 -79.4144 192° South 177 204 11,900  Level Washington Center
Tue 11:20:38 AM 35.3997 -79.4269 190° South 177 204 11,900  Level Washington Center
Tue 11:21:37 AM 35.3536 -79.4375 191° South 171 197 11,900  Level Washington Center
Tue 11:27:31 AM 35.0820 -79.5000 191° South 167 192 11,900  Level FlightAware ADS-B
Tue 11:28:12 AM 35.0550 -79.4930 168° South 167 192 11,900  Level FlightAware ADS-B
Tue 11:28:48 AM 35.0320 -79.4870 168° South 167 192 11,900  Level FlightAware ADS-B
Tue 11:29:32 AM 34.9940 -79.4730 163° South 168 193 11,900  Level FlightAware ADS-B
Tue 11:30:20 AM 34.9630 -79.4620 164° South 168 193 11,900  Level FlightAware ADS-B
Tue 11:30:56 AM 34.9400 -79.4540 164° South 168 193 11,900 156 Level FlightAware ADS-B
Tue 11:31:37 AM 34.9047 -79.4439 164° South 161 185 12,100 118 Climbing Washington Center
Tue 11:32:38 AM 34.8550 -79.4289 166° South 161 185 12,100  Level Washington Center
Tue 11:33:39 AM 34.8139 -79.4144 164° South 161 185 12,100  Level Washington Center
Tue 11:34:37 AM 34.7664 -79.4019 168° South 161 185 12,100  Level Washington Center
Tue 11:35:37 AM 34.7272 -79.3875 163° South 161 185 12,100 -35 Level Washington Center
Tue 11:37:30 AM 34.6422 -79.3597 165° South 157 181 12,000 -35 Descending Jacksonville Center
Tue 11:38:30 AM 34.6022 -79.3436 162° South 162 186 12,000 -14 Level Jacksonville Center
Tue 11:44:34 AM 34.3360 -79.2610 162° South 162 186 11,900 -15 Descending FlightAware ADS-B
Tue 11:45:09 AM 34.3140 -79.2550 167° South 162 186 11,900  Level FlightAware ADS-B
Tue 11:45:47 AM 34.2910 -79.2490 168° South 162 186 11,900  Level FlightAware ADS-B
Tue 11:46:21 AM 34.2690 -79.2440 169° South 162 186 11,900  Level FlightAware ADS-B
Tue 11:46:46 AM 34.2450 -79.3010 243° Southwest 155 178 11,900  Level FlightAware ADS-B
Tue 11:47:26 AM 34.2210 -79.3140 204° Southwest 159 183 11,900  Level FlightAware ADS-B
Tue 11:48:06 AM 34.1950 -79.3290 206° Southwest 159 183 11,900  Level FlightAware ADS-B
Tue 11:48:51 AM 34.1630 -79.3470 205° Southwest 159 183 11,900  Level FlightAware ADS-B
Tue 11:49:26 AM 34.1400 -79.3600 205° Southwest 159 183 11,900  Level FlightAware ADS-B
Tue 11:50:01 AM 34.1140 -79.3740 204° Southwest 162 186 11,900  Level FlightAware ADS-B
Tue 11:50:31 AM 34.0940 -79.3850 204° Southwest 162 186 11,900  Level FlightAware ADS-B
Tue 11:51:11 AM 34.0670 -79.4000 205° Southwest 162 186 11,900  Level FlightAware ADS-B
Tue 11:51:46 AM 34.0440 -79.4130 205° Southwest 161 185 11,900  Level FlightAware ADS-B
Tue 11:52:21 AM 34.0210 -79.4260 205° Southwest 162 186 11,900  Level FlightAware ADS-B
Tue 11:52:56 AM 33.9950 -79.4400 204° Southwest 163 188 11,900 -257 Level FlightAware ADS-B
Tue 11:53:31 AM 33.9700 -79.4540 205° Southwest 179 206 11,600 -507 Descending FlightAware ADS-B
Tue 11:54:07 AM 33.9440 -79.4690 206° Southwest 189 217 11,300 -514 Descending FlightAware ADS-B
Tue 11:54:41 AM 33.9150 -79.4850 205° Southwest 192 221 11,000 -324 Descending FlightAware ADS-B
Tue 11:55:21 AM 33.8820 -79.5030 204° Southwest 187 215 10,900 -86 Descending FlightAware ADS-B
Tue 11:55:51 AM 33.8590 -79.5160 205° Southwest 180 207 10,900  Level FlightAware ADS-B
Tue 11:56:26 AM 33.8320 -79.5300 203° Southwest 179 206 10,900  Level FlightAware ADS-B
Tue 11:57:01 AM 33.8060 -79.5450 206° Southwest 179 206 10,900 -85 Level FlightAware ADS-B
Tue 11:57:37 AM 33.7790 -79.5600 205° Southwest 186 214 10,800 -429 Descending FlightAware ADS-B
Tue 11:58:11 AM 33.7510 -79.5750 204° Southwest 196 226 10,400 -649 Descending FlightAware ADS-B
Tue 11:58:51 AM 33.7170 -79.5940 205° Southwest 200 230 10,000 -533 Descending FlightAware ADS-B
Tue 11:58:56 AM 33.7140 -79.5960 209° Southwest 200 230 10,000 -600 Level FlightAware ADS-B
Tue 11:59:21 AM 33.6950 -79.6060 204° Southwest 199 229 9,700 -667 Descending FlightAware ADS-B
Tue 11:59:41 AM 33.6760 -79.6170 206° Southwest 199 229 9,500 -514 Descending FlightAware ADS-B
Tue 11:59:56 AM 33.6630 -79.6240 204° Southwest 199 229 9,400 -91 Descending FlightAware ADS-B
Tue 12:01:53 PM 33.5790 -79.6690 204° Southwest 199 229 9,300 -549 Descending FlightAware ADS-B
Tue 12:02:29 PM 33.5470 -79.6870 205° Southwest 194 223 8,000 -1,500 Descending FlightAware ADS-B
Tue 12:03:01 PM 33.5190 -79.7020 204° Southwest 190 219 7,600 -737 Descending FlightAware ADS-B
Tue 12:03:26 PM 33.4910 -79.7180 205° Southwest 187 215 7,300 -720 Descending FlightAware ADS-B
Tue 12:03:51 PM 33.4720 -79.7280 204° Southwest 187 215 7,000 -667 Descending FlightAware ADS-B
Tue 12:04:11 PM 33.4560 -79.7370 205° Southwest 184 212 6,800 -600 Descending FlightAware ADS-B
Tue 12:04:31 PM 33.4400 -79.7450 203° Southwest 182 209 6,600 -514 Descending FlightAware ADS-B
Tue 12:04:46 PM 33.4300 -79.7510 207° Southwest 182 209 6,500 -484 Descending FlightAware ADS-B
Tue 12:05:33 PM 33.4010 -79.7670 205° Southwest 180 207 6,100 -480 Descending FlightAware ADS-B
Tue 12:06:01 PM 33.3710 -79.7830 204° Southwest 172 198 5,900 -250 Descending FlightAware ADS-B
Tue 12:06:21 PM 33.3580 -79.7900 204° Southwest 165 190 5,900  Level FlightAware ADS-B
Tue 12:06:42 PM 33.3430 -79.7980 204° Southwest 162 186 5,900  Level FlightAware ADS-B
Tue 12:06:56 PM 33.3330 -79.8030 203° Southwest 160 184 5,900 -353 Level FlightAware ADS-B
Tue 12:07:16 PM 33.3200 -79.8110 207° Southwest 170 196 5,700 -750 Descending FlightAware ADS-B
Tue 12:07:36 PM 33.3060 -79.8180 203° Southwest 181 208 5,400 -800 Descending FlightAware ADS-B
Tue 12:07:46 PM 33.2970 -79.8230 205° Southwest 184 212 5,300 -933 Descending FlightAware ADS-B
Tue 12:08:21 PM 33.2700 -79.8380 205° Southwest 188 216 4,700 -1,067 Descending FlightAware ADS-B
Tue 12:08:31 PM 33.2600 -79.8430 203° Southwest 187 215 4,500 -857 Descending FlightAware ADS-B
Tue 12:08:56 PM 33.2430 -79.8520 204° Southwest 185 213 4,200 -353 Descending FlightAware ADS-B
Tue 12:09:22 PM 33.2260 -79.8610 204° Southwest 185 213 4,200  Level FlightAware ADS-B
Tue 12:12:00 PM 33.1162 -79.9128 206° Southwest  Level FlightAware Approximate
Tue 12:13:00 PM 33.0760 -79.9363 206° Southwest  Level FlightAware Approximate
Tue 12:14:00 PM 33.0357 -79.9598 206° Southwest  Level FlightAware Approximate
Tue 12:15:00 PM 32.9955 -79.9832 206° Southwest  Level FlightAware Approximate
Tue 12:16:00 PM 32.9546 -80.0048 199° South  Level FlightAware Approximate
Tue 12:17:00 PM 32.9122 -80.0218 199° South  Level FlightAware Approximate
Tue 12:18:00 PM 32.8986 -80.0405 199° South  Level Estimated
Tue 12:19:00 PM 32.8986 -80.0405 199° South  Level Estimated
Tue 12:20:00 PM 32.8986 -80.0405 199° South  Level Estimated
Tue 12:21:00 PM 32.8986 -80.0405 199° South  Level Estimated
Tue 12:22:00 PM 32.8986 -80.0405 199° South  Level Estimated
Tue 12:23:00 PM 32.8986 -80.0405 199° South  Level Estimated
Tue 12:24:00 PM 32.8986 -80.0405 199° South  Level Estimated
Tue 12:25:00 PM 32.8986 -80.0405 199° South  Level Estimated
Tue 12:26:00 PM 32.8986 -80.0405 199° South  Level Estimated
Tue 12:27:00 PM 32.8986 -80.0405 199° South  Level Estimated

Login

Don't have an account? Register now (free) for customized features, flight alerts, and more!